Date,TemperatureHighF,TemperatureAvgF,TemperatureLowF,DewpointHighF,DewpointAvgF,DewpointLowF,HumidityHigh,HumidityAvg,HumidityLow,PressureMaxIn,PressureMinIn,WindSpeedMaxMPH,WindSpeedAvgMPH,GustSpeedMaxMPH,PrecipitationSumIn
2014-1-1,63.7,47.3,30.7,23.8,19.8,16.1,57,36,18,30.16,30.05,13,2,13,0.00
2014-1-2,64.5,49.8,30.1,24.4,22.2,16.6,62,36,20,30.21,30.08,26,2,26,0.00
2014-1-3,66.4,44.5,25.9,27.4,22.8,16.8,73,46,21,30.10,29.93,14,0,14,0.00
2014-1-4,59.0,47.3,29.0,26.4,22.0,18.3,68,39,23,30.01,29.91,19,2,19,0.00
2014-1-5,55.8,40.7,28.6,29.5,21.5,10.6,78,48,25,30.20,30.00,11,1,11,0.00
2014-1-6,56.9,42.1,24.4,12.2,7.6,1.8,45,26,13,30.33,30.18,14,1,14,0.00
2014-1-7,62.7,42.5,20.9,15.6,9.8,1.8,49,28,14,30.25,30.08,12,0,12,0.00
2014-1-8,61.9,48.3,32.5,21.4,17.3,13.0,48,30,18,30.11,29.95,22,2,23,0.00
2014-1-9,59.1,43.0,29.7,22.0,16.8,13.4,54,37,19,30.09,29.95,10,1,12,0.00
2014-1-10,57.9,40.7,25.7,23.1,18.4,12.7,63,43,23,30.21,30.03,14,1,14,0.00
2014-1-11,68.1,46.8,29.0,26.5,21.7,16.1,64,40,19,30.25,30.06,10,0,10,0.00
2014-1-12,62.8,48.2,29.6,27.2,23.1,17.9,69,39,23,30.17,29.96,18,3,21,0.00
2014-1-13,61.8,42.2,22.9,26.1,15.7,4.7,79,39,11,30.34,30.16,17,1,17,0.00
2014-1-14,63.7,43.5,22.2,18.1,10.1,4.6,54,30,10,30.37,30.27,20,2,20,0.00
2014-1-15,65.3,45.9,29.7,13.9,10.3,5.3,40,25,13,30.35,30.18,9,1,18,0.00
2014-1-16,66.3,45.1,23.0,19.1,12.2,7.4,56,29,13,30.22,30.08,6,1,14,0.00
2014-1-17,65.9,47.8,30.0,16.2,10.9,7.1,41,23,13,30.19,30.07,6,1,12,0.00
2014-1-18,68.0,50.5,30.7,15.9,11.3,6.9,38,22,12,30.16,30.06,10,1,10,0.00
2014-1-19,67.2,49.5,31.6,16.9,12.6,7.2,39,24,13,30.22,30.09,12,0,12,0.00
2014-1-20,68.0,51.3,33.2,18.4,13.4,8.4,41,23,12,30.22,30.08,11,1,11,0.00
2014-1-21,68.0,53.8,34.2,16.1,13.3,8.5,37,21,11,30.25,30.06,18,2,18,0.00
2014-1-22,69.0,53.4,40.6,18.6,15.3,8.6,37,23,11,30.06,29.81,17,1,17,0.00
2014-1-23,66.5,51.4,34.3,22.7,17.0,10.1,47,28,11,30.19,29.85,17,0,17,0.00
2014-1-24,54.2,44.8,34.3,21.2,18.1,15.1,45,34,25,30.35,30.19,13,2,15,0.00
2014-1-25,65.0,53.1,43.3,44.9,36.5,19.9,82,55,33,30.28,30.03,21,1,21,0.02
2014-1-26,63.1,48.4,32.3,34.1,30.2,24.2,82,52,29,30.07,29.93,24,2,24,0.00
2014-1-27,63.0,50.3,35.3,34.3,28.5,21.8,66,44,30,30.00,29.87,15,1,20,0.00
2014-1-28,63.4,43.8,24.9,27.8,18.8,8.8,75,42,15,30.13,29.98,16,1,16,0.00
2014-1-29,66.2,43.5,28.0,21.1,12.9,2.7,58,32,8,30.13,29.98,10,0,11,0.00
2014-1-30,71.8,55.8,37.5,27.3,19.4,9.3,35,25,16,29.99,29.78,30,3,30,0.00
2014-1-31,65.6,55.6,44.8,37.1,29.5,22.3,62,38,27,29.80,29.65,40,6,40,0.00
2014-2-1,53.7,46.9,40.5,38.6,34.5,27.5,75,62,49,29.90,29.71,23,5,28,0.00
2014-2-2,53.3,39.4,22.4,28.1,21.5,15.5,87,53,25,30.10,29.89,16,1,16,0.00
2014-2-3,54.1,38.1,20.8,31.7,18.7,8.8,93,51,17,29.99,29.76,31,4,31,0.03
2014-2-4,47.7,34.7,20.4,33.6,25.6,17.0,94,72,42,30.12,29.93,14,1,14,0.09
2014-2-5,55.9,42.2,27.9,29.3,25.8,20.6,85,55,26,30.12,29.92,24,1,24,0.00
2014-2-6,52.9,41.0,26.8,33.9,26.4,21.0,85,58,31,30.06,29.95,29,2,29,0.05
2014-2-7,55.9,43.0,32.3,37.0,31.8,26.7,92,67,38,30.16,29.97,21,2,22,0.02
2014-2-8,63.2,47.9,34.1,34.5,27.5,18.3,78,49,21,30.24,30.14,17,1,17,0.00
2014-2-9,69.7,52.1,36.8,37.5,31.1,25.6,71,47,25,30.17,29.98,22,2,22,0.00
2014-2-10,67.8,53.3,35.9,31.2,28.1,22.3,67,40,20,30.02,29.83,28,3,28,0.00
2014-2-11,64.0,46.8,31.2,34.5,26.4,17.9,83,49,17,30.10,29.88,16,1,16,0.00
2014-2-12,68.6,47.7,28.0,26.5,17.8,3.5,67,35,8,30.18,30.05,11,0,11,0.00
2014-2-13,74.4,54.1,31.6,26.1,21.8,14.4,58,31,12,30.12,29.97,15,2,22,0.00
2014-2-14,77.2,56.5,35.5,28.2,23.0,16.3,56,31,13,30.06,29.95,18,1,18,0.00
2014-2-15,80.5,60.4,39.1,25.2,20.5,16.6,44,24,10,30.03,29.91,20,2,20,0.00
2014-2-16,76.3,63.5,45.7,23.5,18.0,12.7,31,18,9,29.99,29.88,22,3,22,0.00
2014-2-17,76.6,58.4,41.6,23.1,18.0,11.9,35,22,11,30.03,29.90,14,1,14,0.00
2014-2-18,74.2,58.2,40.9,24.2,19.9,13.2,39,24,14,29.97,29.85,17,1,17,0.00
2014-2-19,68.9,56.4,37.1,25.4,18.8,11.9,44,24,13,29.88,29.74,22,3,22,0.00
2014-2-20,66.2,51.1,31.0,23.9,15.6,6.1,54,27,12,30.03,29.82,21,2,21,0.00
2014-2-21,69.0,50.6,30.3,11.9,8.1,3.8,35,19,9,30.05,29.89,14,1,14,0.00
2014-2-22,70.7,53.8,36.6,12.4,9.2,5.6,29,18,8,29.95,29.82,20,2,20,0.00
2014-2-23,67.5,56.6,44.7,25.0,15.6,10.1,30,20,14,29.99,29.90,12,1,12,0.00
2014-2-24,73.1,59.0,45.6,28.4,24.0,16.7,40,27,16,29.97,29.82,17,1,17,0.00
2014-2-25,66.5,56.5,42.2,35.0,29.4,21.1,61,36,19,29.95,29.85,24,2,25,0.00
2014-2-26,68.5,54.2,38.5,39.2,32.2,24.6,78,46,25,29.98,29.85,19,2,19,0.00
2014-2-27,69.3,55.6,41.1,36.3,33.0,27.8,70,45,27,29.95,29.79,24,4,24,0.00
2014-2-28,72.5,52.8,38.5,38.7,33.4,29.2,75,51,21,29.86,29.76,22,1,28,0.00
2014-3-1,60.6,52.2,43.3,46.6,37.8,26.6,94,63,32,29.89,29.75,37,3,37,0.96
2014-3-2,56.4,47.3,36.6,41.8,38.9,34.2,94,74,48,30.11,29.86,22,1,22,0.10
2014-3-3,50.7,46.4,42.8,42.0,39.6,38.0,90,77,69,30.07,29.97,9,0,9,0.00
2014-3-4,66.2,53.1,40.4,42.0,39.2,35.1,86,62,33,29.96,29.79,8,2,17,0.00
2014-3-5,69.2,53.6,37.4,41.6,31.5,19.5,89,50,15,30.03,29.91,4,1,15,0.00
2014-3-6,72.9,59.5,43.3,34.8,29.6,23.5,64,34,17,30.02,29.82,8,1,17,0.00
2014-3-7,68.0,57.8,41.2,39.7,34.0,29.1,73,43,24,29.85,29.72,24,4,24,0.00
2014-3-8,63.4,51.9,41.2,40.6,35.3,25.2,83,56,27,30.11,29.84,31,3,31,0.00
2014-3-9,60.9,49.4,39.5,35.1,27.4,22.3,78,45,24,30.21,30.05,22,3,22,0.00
2014-3-10,69.0,52.0,33.4,35.1,30.6,24.7,74,47,25,30.14,29.93,18,1,18,0.00
2014-3-11,67.1,52.9,36.7,36.3,29.6,23.7,78,44,23,29.97,29.85,20,2,20,0.00
2014-3-12,68.0,54.9,36.5,31.1,27.3,25.3,70,37,21,30.02,29.93,16,4,30,0.00
2014-3-13,70.4,56.3,39.2,36.5,30.1,23.4,57,38,24,29.97,29.75,20,2,20,0.00
2014-3-14,62.2,50.2,35.3,31.1,28.2,24.4,69,45,25,30.03,29.81,25,4,25,0.00
2014-3-15,65.5,52.7,35.1,33.1,22.6,2.5,76,38,11,30.09,29.96,33,8,33,0.00
2014-3-16,63.6,52.1,37.2,17.2,9.9,3.2,34,19,10,30.20,30.06,23,3,23,0.00
2014-3-17,73.9,56.7,32.7,20.4,15.5,11.4,45,22,11,30.11,29.65,27,3,27,0.00
2014-3-18,70.8,56.0,36.9,21.6,15.7,11.4,39,21,13,29.86,29.63,20,3,23,0.00
2014-3-19,71.5,55.0,35.0,29.4,17.5,11.2,39,24,14,30.02,29.85,17,1,17,0.00
2014-3-20,73.4,57.1,35.4,22.3,18.6,13.8,46,24,11,30.04,29.83,17,1,17,0.00
2014-3-21,72.8,58.6,42.5,26.7,19.3,12.4,39,23,11,29.87,29.77,26,3,26,0.00
2014-3-22,72.0,55.6,39.8,21.9,19.2,15.7,45,26,13,29.93,29.83,25,2,29,0.00
2014-3-23,71.5,60.8,39.2,27.1,23.6,18.9,45,25,15,30.01,29.88,18,1,18,0.00
2014-3-24,73.5,58.4,39.3,27.5,22.4,17.5,46,27,13,30.01,29.88,19,1,19,0.00
2014-3-25,74.0,59.1,39.7,35.2,25.6,18.7,52,30,16,29.92,29.67,38,3,38,0.00
2014-3-26,70.4,57.2,39.2,31.0,26.1,18.1,66,34,15,29.81,29.66,33,6,33,0.00
2014-3-27,65.8,54.2,37.0,36.5,31.8,24.3,75,44,29,29.92,29.75,26,5,29,0.00
2014-3-28,66.8,50.8,31.5,31.3,25.6,19.7,73,41,18,30.09,29.92,17,1,17,0.00
2014-3-29,77.0,57.3,35.1,29.3,21.6,14.2,59,29,10,30.12,29.89,17,1,17,0.00
2014-3-30,74.9,60.9,42.6,28.0,21.8,14.5,40,23,12,29.92,29.74,28,5,28,0.00
2014-3-31,72.7,57.6,36.1,25.9,17.0,7.7,52,24,9,29.94,29.83,33,3,33,0.00
2014-4-1,71.8,58.4,36.0,22.4,7.8,-5.7,46,17,5,29.87,29.74,39,6,39,0.00
2014-4-2,65.2,52.6,35.0,29.3,13.2,-4.1,55,22,12,29.83,29.69,36,7,36,0.00
2014-4-3,60.4,47.8,27.7,30.5,17.5,2.9,76,35,10,29.99,29.82,17,2,17,0.00
2014-4-4,69.6,53.6,28.5,18.9,14.5,7.3,44,23,11,29.99,29.78,21,2,21,0.00
2014-4-5,61.2,50.7,33.3,23.7,18.6,10.8,44,29,22,29.85,29.73,28,3,28,0.00
2014-4-6,65.5,54.6,29.0,24.2,17.8,9.9,55,24,14,30.00,29.85,24,5,24,0.00
2014-4-7,73.8,55.8,32.2,21.6,16.6,10.6,46,23,11,30.12,29.98,24,2,24,0.00
2014-4-8,80.1,62.5,41.3,23.1,14.3,5.8,36,18,7,30.15,29.99,17,1,17,0.00
2014-4-9,83.8,67.4,44.2,17.8,11.2,4.6,26,12,5,30.02,29.86,18,2,18,0.00
2014-4-10,83.8,71.8,48.3,14.6,4.3,-13.9,19,8,2,29.96,29.79,16,2,23,0.00
2014-4-11,82.5,69.8,52.4,28.5,20.4,9.8,21,16,9,29.90,29.70,21,2,21,0.00
2014-4-12,77.3,65.8,46.5,31.6,22.5,12.8,32,20,11,29.75,29.55,34,6,34,0.00
2014-4-13,75.0,60.7,40.5,35.9,20.8,11.8,43,23,13,29.82,29.67,24,4,24,0.00
2014-4-14,71.3,58.8,41.0,32.2,14.7,-1.6,54,23,6,29.95,29.80,18,2,18,0.00
2014-4-15,79.2,59.3,35.5,22.8,14.4,-0.8,32,18,9,29.94,29.69,22,1,22,0.00
2014-4-16,78.3,62.8,41.5,15.3,11.6,7.3,25,14,8,29.79,29.63,24,3,24,0.00
2014-4-17,81.0,65.9,48.0,29.7,22.2,11.9,35,20,10,29.86,29.75,16,1,16,0.00
2014-4-18,69.1,59.5,50.9,50.5,37.5,19.8,81,48,23,29.88,29.75,28,2,28,0.07
2014-4-19,69.5,57.1,48.7,49.7,44.7,40.5,83,65,37,29.97,29.81,21,2,21,0.23
2014-4-20,75.6,60.7,41.9,45.8,40.1,33.5,88,51,22,30.02,29.92,20,1,20,0.00
2014-4-21,82.5,67.2,45.8,43.6,37.5,31.7,73,38,18,29.99,29.82,15,1,15,0.00
2014-4-22,83.7,74.4,54.8,38.8,32.0,25.4,50,22,14,29.84,29.60,29,5,29,0.00
2014-4-23,67.2,56.9,46.6,31.5,25.5,19.1,40,30,17,29.80,29.63,18,1,22,0.00
2014-4-24,80.0,61.1,37.8,25.4,20.4,16.5,45,23,11,29.91,29.79,25,2,25,0.00
2014-4-25,79.3,65.6,43.6,28.1,17.8,7.8,38,18,7,29.86,29.67,35,4,35,0.00
2014-4-26,67.2,58.9,47.7,44.0,29.4,11.8,84,36,13,29.68,29.51,46,10,46,0.02
2014-4-27,65.8,57.2,32.1,38.7,28.5,22.1,91,36,20,29.88,29.76,24,5,24,0.00
2014-4-28,73.0,61.8,38.3,29.8,26.9,21.8,53,27,18,29.90,29.79,28,5,28,0.00
2014-4-29,73.3,61.1,46.2,27.1,12.2,0.9,43,16,6,29.93,29.80,19,3,19,0.00
2014-4-30,72.8,61.3,46.6,22.5,13.7,6.2,24,16,10,29.89,29.74,24,4,24,0.00
2014-5-1,71.3,60.8,50.3,27.7,24.1,20.1,34,25,17,29.93,29.78,25,3,25,0.00
2014-5-2,78.5,63.1,41.2,29.9,21.1,12.0,43,22,9,30.01,29.86,16,1,16,0.00
2014-5-3,85.3,69.2,45.1,22.4,15.9,8.7,30,14,6,29.94,29.78,22,1,22,0.00
2014-5-4,85.7,69.4,51.5,23.8,17.5,13.7,24,15,8,29.91,29.76,29,2,34,0.00
2014-5-5,81.3,68.0,49.9,34.5,24.0,19.0,39,21,11,29.89,29.72,28,3,28,0.00
2014-5-6,77.4,66.9,46.4,31.0,19.0,6.8,35,18,7,29.74,29.51,30,7,36,0.00
2014-5-7,66.6,57.0,38.9,38.2,26.2,15.7,61,32,20,29.83,29.57,31,7,31,0.00
2014-5-8,70.8,53.8,33.5,31.3,23.4,14.9,65,34,17,29.98,29.83,25,1,25,0.00
2014-5-9,78.0,60.4,37.2,28.4,22.8,16.6,50,26,13,29.98,29.82,30,2,30,0.00
2014-5-10,82.6,67.7,47.1,35.4,27.9,20.3,38,24,13,29.86,29.59,32,4,32,0.00
2014-5-11,76.7,64.2,48.5,37.2,29.5,14.6,48,28,17,29.75,29.51,33,8,33,0.00
2014-5-12,73.5,62.4,30.8,21.6,15.9,4.7,39,18,7,29.97,29.79,18,2,18,0.00
2014-5-13,75.5,65.1,51.2,26.4,19.6,12.3,25,18,12,30.01,29.91,34,3,34,0.00
2014-5-14,75.0,63.5,50.4,26.8,24.0,20.3,36,23,14,30.10,29.96,17,2,17,0.00
2014-5-15,84.0,67.9,45.3,22.6,17.2,10.4,32,16,7,30.06,29.89,17,1,17,0.00
2014-5-16,89.7,71.7,47.7,22.7,16.4,9.0,27,14,5,29.96,29.76,34,3,34,0.00
2014-5-17,90.0,78.6,53.8,23.9,14.5,7.4,24,9,5,29.83,29.68,24,3,24,0.00
2014-5-18,90.3,80.3,55.6,14.2,5.6,-3.7,16,6,3,29.76,29.63,28,4,28,0.00
2014-5-19,86.7,71.2,45.6,15.1,5.9,-3.0,20,9,4,29.78,29.67,28,3,28,0.00
2014-5-20,85.5,71.2,49.2,24.4,16.0,9.9,23,13,7,29.80,29.67,40,4,40,0.00
2014-5-21,82.5,70.9,48.1,31.1,25.1,13.9,29,18,14,29.76,29.69,39,5,39,0.00
2014-5-22,81.5,70.8,55.1,40.3,32.8,25.7,39,26,15,29.79,29.66,34,5,34,0.00
2014-5-23,78.0,66.6,50.2,38.1,26.0,9.7,37,23,10,29.79,29.67,37,6,37,0.00
2014-5-24,75.3,60.0,45.7,37.2,30.7,21.2,60,35,18,29.86,29.77,21,2,21,0.00
2014-5-25,77.8,64.9,50.1,39.5,33.8,23.3,44,32,24,29.88,29.77,23,2,23,0.00
2014-5-26,87.0,75.6,52.3,40.7,37.4,30.6,47,26,19,29.89,29.77,22,3,22,0.00
2014-5-27,93.5,77.7,54.1,40.7,34.4,24.1,44,23,10,29.88,29.69,17,2,17,0.00
2014-5-28,95.3,83.6,52.3,38.2,33.3,26.0,41,17,11,29.76,29.59,30,2,30,0.00
2014-5-29,80.8,74.8,66.6,46.9,39.0,28.3,39,28,20,29.77,29.67,23,3,23,0.00
2014-5-30,91.8,80.8,56.7,45.6,41.2,33.0,54,26,16,29.79,29.63,24,1,24,0.00
2014-5-31,95.2,79.9,59.1,41.2,32.9,23.9,40,20,9,29.73,29.60,24,3,24,0.00
2014-6-1,93.8,77.0,55.0,34.9,28.0,21.3,38,18,9,29.71,29.61,21,2,21,0.00
2014-6-2,98.5,82.2,59.4,31.2,24.3,16.9,25,13,6,29.72,29.59,21,2,21,0.00
2014-6-3,98.2,85.6,65.1,36.2,32.2,24.9,27,15,11,29.67,29.56,23,3,23,0.00
2014-6-4,96.5,78.5,55.7,29.4,21.5,12.6,29,14,5,29.68,29.56,22,3,22,0.00
2014-6-5,97.5,79.3,54.0,27.2,18.6,13.7,22,11,5,29.66,29.52,27,2,27,0.00
2014-6-6,94.1,79.0,59.7,19.4,11.3,4.7,16,8,4,29.60,29.51,16,3,22,0.00
2014-6-7,94.3,84.6,57.8,36.9,28.2,6.1,19,13,8,29.64,29.52,22,4,22,0.00
2014-6-8,91.7,81.1,57.2,48.3,39.9,30.7,39,24,16,29.67,29.54,20,2,20,0.00
2014-6-9,94.7,79.7,57.9,47.2,32.6,22.1,52,21,8,29.71,29.56,21,1,21,0.00
2014-6-10,95.5,79.5,60.9,49.2,32.9,19.8,34,19,11,29.67,29.55,24,2,24,0.00
2014-6-11,93.7,80.1,61.7,50.3,43.0,30.8,48,28,16,29.70,29.59,28,5,28,0.00
2014-6-12,95.5,81.6,64.9,44.6,40.6,35.3,44,25,15,29.76,29.62,22,2,22,0.00
2014-6-13,94.1,82.3,64.3,62.7,51.1,43.0,62,35,21,29.72,29.55,25,4,25,0.12
2014-6-14,91.7,79.9,67.9,52.5,44.5,36.8,55,30,18,29.65,29.52,37,5,37,0.00
2014-6-15,91.5,78.7,58.4,39.3,33.1,25.3,32,20,11,29.68,29.59,37,5,37,0.00
2014-6-16,90.3,81.5,58.5,46.5,40.7,31.9,40,24,18,29.74,29.61,32,6,32,0.00
2014-6-17,90.0,77.5,60.2,50.9,47.1,37.7,63,36,21,29.74,29.61,32,4,32,0.00
2014-6-18,88.1,76.1,61.2,47.8,44.5,39.9,54,34,21,29.72,29.63,29,5,29,0.00
2014-6-19,90.3,78.0,57.5,45.6,41.8,35.1,54,29,18,29.80,29.67,23,2,23,0.00
2014-6-20,95.7,79.3,55.9,41.9,38.4,32.6,46,25,14,29.78,29.61,22,1,22,0.00
2014-6-21,94.2,80.0,61.4,43.2,39.8,33.2,43,25,16,29.73,29.60,21,2,21,0.00
2014-6-22,94.2,85.9,62.5,46.0,42.5,36.7,41,22,18,29.76,29.59,27,4,27,0.00
2014-6-23,94.6,84.8,64.6,45.7,41.6,32.0,35,22,16,29.74,29.60,22,3,22,0.00
2014-6-24,93.5,80.1,63.5,51.0,42.8,31.0,41,28,13,29.79,29.64,25,3,25,0.00
2014-6-25,94.3,81.1,62.0,53.7,46.9,39.0,53,32,19,29.75,29.60,25,4,25,0.00
2014-6-26,94.5,81.5,65.0,55.9,48.1,41.4,59,33,17,29.72,29.54,30,3,30,0.00
2014-6-27,91.9,81.5,67.0,48.2,39.5,31.8,36,24,13,29.62,29.50,30,5,30,0.00
2014-6-28,93.8,82.4,62.8,42.9,39.4,33.9,41,23,15,29.70,29.59,22,3,22,0.00
2014-6-29,96.5,81.9,62.6,57.1,46.3,33.3,61,31,15,29.77,29.62,17,2,17,0.00
2014-6-30,96.3,83.8,63.6,57.1,43.3,28.2,65,26,12,29.75,29.57,18,3,18,0.00
2014-7-1,96.2,81.7,61.5,44.0,39.6,29.6,38,23,16,29.72,29.59,16,2,24,0.00
2014-7-2,97.2,82.5,64.9,54.8,44.8,34.5,51,28,17,29.77,29.58,30,3,30,0.00
2014-7-3,89.0,76.6,65.2,61.9,54.0,43.8,88,48,22,29.88,29.68,21,2,24,0.07
2014-7-4,88.7,73.6,65.0,63.7,59.4,54.5,89,64,32,29.91,29.80,19,1,19,0.10
2014-7-5,87.3,74.9,66.7,64.5,61.3,56.8,90,65,36,29.93,29.80,21,1,21,0.01
2014-7-6,87.8,79.0,66.4,63.0,59.3,56.4,79,52,35,29.86,29.71,23,2,23,0.00
2014-7-7,86.2,72.4,0.0,66.0,61.2,0.0,91,69,45,29.78,29.70,33,1,35,0.64
2014-7-8,90.2,79.9,66.7,65.1,60.8,54.9,84,53,33,29.87,29.72,19,2,19,0.03
2014-7-9,87.4,70.9,63.2,65.3,60.0,56.7,86,69,38,29.85,29.71,23,1,23,0.17
2014-7-10,90.3,74.9,62.0,65.8,59.6,55.1,86,62,31,29.83,29.66,25,1,25,0.16
2014-7-11,90.8,74.8,63.8,63.6,59.7,52.2,94,64,29,29.88,29.69,24,1,24,0.90
2014-7-12,88.2,75.0,64.1,65.3,61.3,54.8,93,66,34,29.85,29.72,19,1,19,0.00
2014-7-13,89.9,81.6,65.3,66.1,59.7,54.9,85,50,32,29.83,29.70,24,4,24,0.04
2014-7-14,88.4,76.8,64.5,66.1,62.1,55.5,93,62,39,29.92,29.78,22,4,22,0.02
2014-7-15,80.9,72.1,65.6,64.0,60.3,56.1,83,67,49,29.92,29.79,19,1,19,0.00
2014-7-16,87.4,76.0,63.4,62.0,58.5,53.1,84,57,37,29.85,29.69,22,3,22,0.00
2014-7-17,87.7,76.3,66.2,57.2,51.1,45.5,71,44,27,29.80,29.69,22,3,22,0.00
2014-7-18,89.7,78.0,64.3,55.2,49.1,41.7,57,37,25,29.84,29.71,19,2,19,0.00
2014-7-19,92.2,82.8,64.7,54.8,52.1,49.8,61,36,26,29.82,29.69,16,2,16,0.00
2014-7-20,91.0,80.0,64.7,53.7,49.8,47.4,57,37,23,29.84,29.72,19,2,19,0.00
2014-7-21,92.1,83.6,72.3,58.1,51.5,45.1,59,34,23,29.84,29.72,16,2,16,0.00
2014-7-22,96.4,82.6,66.3,58.8,50.8,44.4,52,34,23,29.86,29.74,26,2,26,0.00
2014-7-23,93.8,81.5,70.0,65.4,58.5,52.3,69,47,26,29.84,29.70,24,2,24,0.01
2014-7-24,95.7,85.3,75.3,59.8,50.5,44.2,57,32,18,29.79,29.63,21,3,21,0.00
2014-7-25,93.8,76.8,66.0,65.5,60.2,54.4,86,59,28,29.81,29.64,30,1,30,0.21
2014-7-26,92.0,77.3,62.0,64.0,60.3,57.7,89,59,34,29.86,29.68,25,3,25,0.31
2014-7-27,90.6,77.6,65.1,64.4,60.3,55.2,93,58,32,29.93,29.71,23,3,23,0.19
2014-7-28,86.4,74.9,64.6,65.1,61.8,57.1,93,66,39,29.97,29.85,16,1,16,0.00
2014-7-29,87.8,77.1,64.5,63.7,59.7,55.3,85,57,34,29.90,29.76,16,1,16,0.00
2014-7-30,93.8,79.7,67.3,62.8,57.4,51.0,71,48,25,29.83,29.72,19,2,19,0.00
2014-7-31,90.7,76.9,70.7,67.4,59.1,54.0,80,56,30,29.85,29.70,21,2,21,0.26
2014-8-1,85.0,71.7,62.9,67.2,62.4,58.0,93,74,45,29.90,29.73,24,1,24,2.13
2014-8-2,77.3,67.4,62.0,65.0,62.3,59.7,94,84,63,29.89,29.80,18,1,18,1.17
2014-8-3,85.6,74.2,61.6,63.7,60.4,54.8,94,65,38,29.92,29.78,13,0,13,0.00
2014-8-4,86.3,79.1,70.4,65.1,58.9,50.5,79,51,34,29.85,29.73,15,1,15,0.00
2014-8-5,89.0,75.8,61.3,60.2,52.6,45.6,78,48,23,29.88,29.76,18,0,18,0.00
2014-8-6,90.7,78.0,62.2,58.2,53.5,47.4,76,45,26,29.85,29.70,17,1,17,0.00
2014-8-7,85.3,76.2,69.5,61.2,55.6,48.1,74,50,30,29.80,29.70,17,1,17,0.00
2014-8-8,89.0,76.1,62.5,62.9,57.5,48.1,86,56,27,29.82,29.68,22,0,22,0.00
2014-8-9,89.7,73.6,62.3,64.6,60.4,57.7,91,66,35,29.92,29.67,24,2,24,0.61
2014-8-10,85.0,73.9,62.3,66.3,60.3,55.7,92,65,41,29.88,29.77,18,1,18,0.25
2014-8-11,85.3,74.1,65.4,70.1,62.5,57.8,90,68,44,29.86,29.72,30,2,30,0.29
2014-8-12,83.3,72.3,62.9,67.4,62.5,58.9,91,73,50,29.87,29.74,22,2,22,0.58
2014-8-13,85.2,71.0,63.1,67.2,63.6,60.5,94,80,47,29.91,29.79,25,1,25,0.37
2014-8-14,79.0,71.2,63.2,67.7,63.6,59.9,93,78,57,29.90,29.81,14,1,14,0.01
2014-8-15,82.8,74.2,68.2,67.5,64.8,60.6,91,74,48,29.88,29.77,14,1,14,0.00
2014-8-16,88.0,76.0,67.3,65.5,62.5,59.3,87,65,40,29.88,29.73,9,1,19,0.00
2014-8-17,88.1,74.3,64.3,66.1,61.7,57.4,91,67,38,29.83,29.69,12,2,33,0.50
2014-8-18,85.0,72.4,61.5,63.8,61.1,58.1,91,69,41,29.81,29.69,7,1,17,0.00
2014-8-19,75.5,66.9,61.8,64.5,62.6,58.8,94,87,63,29.80,29.72,7,1,19,0.99
2014-8-20,79.6,69.5,59.8,62.6,59.6,53.7,93,73,41,29.89,29.76,4,0,17,0.00
2014-8-22,78.2,70.6,63.5,65.1,61.1,57.2,91,73,54,29.90,29.81,23,1,23,0.36
2014-8-23,82.0,70.8,60.5,64.1,59.0,54.4,93,68,42,29.86,29.73,13,1,13,0.00
2014-8-24,85.5,73.7,61.1,63.0,57.9,54.1,84,60,35,29.81,29.70,17,1,17,0.00
2014-8-25,83.7,71.6,61.7,65.7,61.7,56.8,92,73,43,29.85,29.73,11,1,11,0.00
2014-8-26,81.8,70.0,62.5,67.0,63.2,59.4,94,80,51,29.90,29.80,14,1,14,0.19
2014-8-27,76.9,66.6,62.4,65.4,61.4,58.8,96,84,57,29.93,29.85,4,0,4,0.00
2014-8-28,86.8,74.1,61.8,60.7,56.0,48.4,85,56,27,29.87,29.71,14,1,14,0.00
2014-8-29,71.0,63.2,55.5,57.6,51.1,49.2,82,66,48,29.78,29.71,5,0,5,0.00
2014-8-30,92.0,77.2,60.6,58.0,51.4,46.5,67,43,24,29.77,29.63,14,1,14,0.00
2014-8-31,90.8,77.0,61.7,57.5,51.3,47.0,65,43,26,29.78,29.66,16,1,16,0.00
2014-9-1,91.3,81.3,62.4,56.2,49.4,44.0,58,35,20,29.79,29.67,15,1,15,0.00
2014-9-2,92.7,80.9,58.5,56.0,49.2,43.2,71,35,20,29.78,29.62,12,1,13,0.00
2014-9-3,89.0,76.7,60.0,59.8,54.1,49.7,74,47,28,29.69,29.57,15,1,16,0.00
2014-9-4,88.1,73.7,63.3,67.7,57.5,49.8,92,59,31,29.75,29.55,17,1,18,0.31
2014-9-5,84.8,72.1,60.0,62.7,59.4,56.5,90,66,40,29.83,29.73,11,1,14,0.00
2014-9-6,80.9,68.5,62.7,65.5,62.4,57.2,95,82,55,29.85,29.78,30,2,30,0.73
2014-9-7,81.3,71.8,64.8,65.3,62.3,59.4,90,73,53,29.87,29.72,12,2,12,0.00
2014-9-8,77.2,67.1,62.7,66.6,63.2,60.1,95,88,64,29.85,29.73,13,1,15,1.03
2014-9-9,81.2,69.4,59.8,65.9,60.7,54.4,96,77,43,29.88,29.75,13,1,18,0.00
2014-9-10,82.0,68.7,56.0,61.7,54.3,45.3,92,65,28,29.86,29.74,15,1,15,0.01
2014-9-11,86.5,71.4,55.0,61.5,54.9,50.1,90,60,29,29.82,29.69,11,0,11,0.00
2014-9-12,87.6,72.8,58.2,65.7,57.6,53.4,85,61,36,29.77,29.66,16,1,21,0.21
2014-9-13,78.8,69.6,61.0,59.9,57.2,54.8,82,66,47,29.83,29.72,15,2,18,0.00
2014-9-14,81.5,70.9,57.8,61.9,57.5,53.2,87,64,46,29.83,29.71,13,2,13,0.00
2014-9-15,80.7,68.6,58.6,66.8,58.2,54.6,88,70,55,29.84,29.74,18,2,18,0.00
2014-9-16,72.8,68.2,62.9,65.5,63.1,59.6,91,84,73,29.84,29.72,17,5,19,0.25
2014-9-17,72.2,66.7,63.4,64.7,62.2,60.0,94,85,71,29.77,29.65,25,6,25,0.84
2014-9-18,73.3,66.6,61.6,65.8,62.3,59.3,95,86,73,29.74,29.63,12,2,13,1.07
2014-9-19,80.9,69.0,62.7,66.6,63.6,60.2,95,84,52,29.78,29.68,10,0,11,0.23
2014-9-20,80.6,69.0,61.7,68.0,63.2,59.4,95,83,57,29.83,29.72,18,0,18,0.19
2014-9-21,83.0,69.2,60.0,68.3,63.2,58.0,95,83,52,29.93,29.76,18,1,20,0.35
2014-9-22,81.7,70.5,59.6,68.1,63.1,57.6,94,78,54,29.91,29.80,14,1,19,0.00
2014-9-23,83.4,74.5,63.1,67.5,62.9,57.4,91,68,49,29.88,29.74,9,1,13,0.00
2014-9-24,86.6,72.7,60.8,65.3,59.9,55.1,89,66,37,29.86,29.75,11,1,13,0.00
2014-9-25,85.0,73.4,59.9,66.7,58.7,54.6,86,61,40,29.87,29.75,11,0,11,0.00
2014-9-26,76.6,69.6,62.3,64.6,59.0,55.4,81,70,55,29.85,29.73,14,1,14,0.01
2014-9-27,79.8,71.9,58.0,61.7,59.3,54.5,92,66,45,29.79,29.63,17,2,21,0.01
2014-9-28,78.7,68.2,56.9,61.2,56.5,51.4,89,69,39,29.79,29.70,21,2,22,0.00
2014-9-29,79.8,66.9,53.3,64.1,55.6,47.3,96,70,42,29.79,29.69,21,1,22,0.00
2014-9-30,77.7,66.3,50.3,50.1,43.7,37.1,76,46,24,29.80,29.70,14,1,14,0.00
2014-10-1,79.0,62.8,46.3,47.8,40.5,34.0,80,49,24,29.83,29.70,12,1,12,0.00
2014-10-2,78.0,62.2,42.4,46.9,38.4,29.7,86,46,20,29.98,29.83,15,2,15,0.00
2014-10-3,85.4,69.0,50.7,42.9,37.2,32.3,54,33,18,30.02,29.92,14,2,15,0.00
2014-10-4,85.4,72.6,51.4,49.6,42.1,35.3,71,37,17,29.96,29.82,17,2,18,0.00
2014-10-5,82.0,65.5,49.7,50.4,45.5,39.7,75,51,27,29.91,29.78,15,1,18,0.00
2014-10-6,78.8,64.9,51.1,50.0,41.5,28.7,72,46,16,29.92,29.84,8,0,9,0.00
2014-10-7,80.8,69.7,56.6,60.3,53.6,41.5,92,60,31,29.92,29.80,16,1,16,0.14
2014-10-8,74.5,62.6,58.3,62.5,58.5,56.2,95,87,54,29.87,29.70,17,2,18,0.68
2014-10-9,68.5,60.8,54.5,61.0,56.7,52.4,95,87,69,29.88,29.77,15,2,18,0.15
2014-10-10,74.8,62.5,50.5,57.9,53.5,48.6,96,75,47,29.95,29.86,13,1,13,0.00
2014-10-11,78.5,64.2,49.9,58.4,50.8,43.0,94,65,32,29.95,29.83,11,0,11,0.01
2014-10-12,75.1,65.9,52.4,54.0,46.9,42.9,80,52,33,29.85,29.74,23,3,23,0.00
2014-10-13,75.6,61.1,47.9,47.5,42.1,36.2,84,54,27,29.99,29.85,12,0,12,0.00
2014-10-14,78.8,69.3,49.3,43.2,39.4,34.3,59,35,24,30.01,29.86,13,2,13,0.00
2014-10-15,83.3,65.8,44.0,50.0,43.5,36.8,79,48,23,29.92,29.81,18,1,18,0.00
2014-10-16,82.3,66.3,51.2,55.4,48.9,42.8,87,57,26,29.88,29.77,15,1,15,0.00
2014-10-17,77.2,67.3,51.1,50.7,40.8,34.8,76,39,25,29.89,29.80,13,1,13,0.00
2014-10-18,80.0,65.2,43.9,47.0,42.4,37.5,79,46,26,29.84,29.70,17,1,17,0.00
2014-10-19,74.9,66.0,55.5,52.1,45.7,30.9,77,50,23,29.83,29.69,44,4,44,0.01
2014-10-20,73.5,58.2,43.4,52.4,47.7,40.2,93,70,43,29.88,29.78,13,0,13,0.00
2014-10-21,74.5,60.8,46.2,51.5,48.1,42.8,91,65,39,29.88,29.77,15,1,15,0.00
2014-10-22,78.0,62.4,44.5,53.4,47.4,41.3,92,61,34,29.93,29.83,11,1,11,0.00
2014-10-23,80.0,64.9,51.0,52.3,46.8,43.1,78,54,33,30.00,29.89,11,0,11,0.00
2014-10-24,83.0,66.9,48.7,51.1,46.0,41.6,80,50,27,30.03,29.90,14,0,14,0.00
2014-10-25,84.6,66.9,48.4,52.8,48.4,43.0,83,55,30,30.00,29.87,13,1,13,0.00
2014-10-26,81.5,69.5,56.1,54.0,49.2,43.9,76,51,28,29.90,29.70,26,2,26,0.00
2014-10-27,76.9,63.7,49.9,55.5,47.8,35.9,85,60,23,29.90,29.72,22,1,22,0.00
2014-10-28,76.1,59.1,43.3,52.1,43.6,35.9,92,61,24,29.99,29.89,15,0,15,0.00
2014-10-29,66.2,50.6,43.4,46.2,41.1,38.1,85,70,47,30.03,29.97,5,0,5,0.00
2014-10-30,68.8,65.1,61.0,42.2,40.7,39.5,46,41,38,29.92,29.90,10,2,10,0.00
2014-10-31,79.9,69.9,51.0,50.0,45.7,39.2,64,42,35,29.90,29.75,19,4,19,0.00
2014-11-1,77.1,68.0,60.1,48.2,41.9,33.0,55,40,20,29.79,29.68,26,4,26,0.00
2014-11-2,65.4,56.7,39.4,51.8,45.8,33.4,83,67,53,29.89,29.69,30,3,30,0.01
2014-11-3,60.6,45.1,30.9,40.9,33.2,24.8,93,66,38,30.07,29.88,15,1,15,0.01
2014-11-4,61.3,47.5,26.7,37.1,31.0,22.8,88,56,33,30.12,30.02,22,2,22,0.00
2014-11-5,64.5,53.2,42.4,41.3,37.7,31.9,73,57,41,30.17,29.99,19,3,19,0.00
2014-11-6,66.8,52.4,37.2,43.3,38.2,31.0,86,61,36,30.28,30.16,17,2,17,0.00
2014-11-7,71.5,52.5,37.6,45.7,39.5,32.9,90,65,26,30.21,30.00,7,1,11,0.00
2014-11-8,73.0,56.3,35.1,38.9,34.6,28.8,85,49,26,30.16,30.04,19,2,19,0.00
2014-11-9,73.8,60.6,37.7,40.2,36.7,30.5,77,43,25,30.00,29.79,11,1,11,0.00
2014-11-10,72.7,60.2,43.9,43.4,36.5,31.8,66,43,27,29.85,29.73,29,3,29,0.00
2014-11-11,71.7,55.2,39.4,47.5,41.7,35.8,92,64,34,29.88,29.77,11,1,21,0.00
2014-11-12,71.0,55.3,39.1,52.2,42.8,36.1,95,67,32,29.96,29.82,17,2,17,0.00
2014-11-13,71.0,56.0,42.1,51.5,42.9,37.5,94,65,35,30.01,29.90,16,2,23,0.00
2014-11-14,72.1,55.2,42.1,51.2,43.3,34.3,95,68,25,29.97,29.83,19,2,21,0.00
2014-11-15,65.5,52.9,38.7,50.8,41.2,33.1,95,68,32,29.99,29.88,18,1,18,0.00
2014-11-16,61.1,49.5,33.4,45.8,33.5,14.8,86,56,31,30.09,29.88,26,5,26,0.00
2014-11-17,57.6,42.9,24.8,25.9,20.7,13.4,63,42,29,30.21,30.08,14,1,14,0.00
2014-11-18,49.3,38.6,25.7,22.8,17.7,13.3,75,44,31,30.24,30.16,11,0,11,0.00
2014-11-19,66.8,44.9,22.9,22.5,14.6,9.6,68,33,11,30.24,30.07,11,0,11,0.00
2014-11-20,65.5,48.2,28.8,27.4,18.6,9.6,50,33,13,30.13,29.97,15,1,15,0.00
2014-11-21,62.6,46.8,30.3,28.7,21.5,15.9,74,39,20,29.99,29.85,14,1,14,0.00
2014-11-22,62.7,44.8,25.9,30.7,24.8,18.8,76,49,23,30.10,29.96,12,1,12,0.00
2014-11-23,57.8,45.8,30.5,33.7,21.3,-6.1,72,42,12,30.13,29.95,24,4,24,0.00
2014-11-24,56.1,41.0,18.5,5.6,0.8,-5.1,40,20,10,30.36,30.11,24,3,24,0.00
2014-11-25,58.2,42.1,25.7,8.0,3.7,-0.9,35,21,9,30.44,30.29,20,1,20,0.00
2014-11-26,71.0,48.3,26.9,25.4,15.4,1.3,46,28,14,30.38,30.23,12,1,12,0.00
2014-11-27,71.5,56.6,38.2,27.7,23.5,18.0,46,29,17,30.26,30.08,13,2,13,0.00
2014-11-28,75.2,52.8,30.3,27.6,21.8,15.4,58,33,13,30.10,29.94,11,1,11,0.00
2014-11-29,72.3,60.7,42.6,27.0,19.7,14.4,43,22,11,29.96,29.84,15,2,15,0.00
2014-11-30,68.8,54.4,31.1,26.5,20.8,16.9,62,30,14,30.11,29.96,17,2,17,0.00
2014-12-1,65.4,49.5,33.4,28.4,23.4,16.1,61,38,23,30.19,30.06,9,0,9,0.00
2014-12-2,67.7,52.1,32.1,46.2,26.3,15.7,75,39,17,30.09,29.96,10,0,10,0.00
2014-12-3,69.7,61.5,47.1,51.7,48.6,43.3,92,64,49,30.02,29.90,11,2,11,0.00
2014-12-4,54.6,50.1,40.0,52.3,47.2,38.4,95,90,77,30.08,29.86,18,1,18,0.36
2014-12-5,62.6,49.1,34.6,49.1,42.6,33.0,100,80,47,30.20,30.07,13,1,13,0.01
2014-12-6,57.6,48.3,40.1,45.5,40.6,34.8,89,75,58,30.19,30.09,22,2,22,0.04
2014-12-7,65.0,54.4,32.1,44.3,39.8,29.2,93,60,41,30.25,30.13,17,2,17,0.00
2014-12-8,68.3,54.7,40.9,41.8,39.2,34.8,82,58,35,30.13,30.00,15,2,15,0.00
2014-12-9,72.6,57.3,45.1,45.2,42.2,38.6,78,59,31,30.04,29.90,13,1,13,0.00
2014-12-10,68.5,53.7,37.9,47.2,39.1,29.1,92,62,28,29.98,29.87,17,1,17,0.00
2014-12-11,68.3,55.2,37.7,38.7,29.7,22.8,72,40,18,30.09,29.97,18,2,18,0.00
2014-12-12,68.0,56.9,40.2,43.3,36.9,27.3,70,48,36,30.09,29.94,27,2,27,0.00
2014-12-13,58.9,47.0,35.1,44.9,40.3,32.4,93,80,52,30.01,29.79,23,5,27,0.23
2014-12-14,51.4,37.4,25.5,38.8,30.3,23.5,95,78,39,30.16,30.00,10,0,10,0.00
2014-12-15,61.9,43.9,24.6,36.4,29.3,21.0,90,60,26,30.19,30.06,14,1,14,0.01
2014-12-16,59.8,52.6,41.5,37.5,34.1,29.0,73,50,31,30.06,29.86,13,2,16,0.00
2014-12-17,48.1,44.0,39.3,43.1,38.2,31.6,93,80,60,30.12,29.91,22,2,22,0.27
2014-12-18,48.2,40.2,30.3,43.5,37.7,27.9,94,91,72,30.20,30.04,18,1,18,0.16
2014-12-19,51.6,37.4,24.3,38.9,30.3,21.9,95,78,44,30.29,30.16,11,0,11,0.01
2014-12-20,56.6,44.8,31.1,32.2,29.3,24.2,78,56,35,30.21,30.08,10,0,10,0.00
2014-12-21,56.3,41.0,28.0,35.8,30.9,23.5,85,69,41,30.15,30.03,13,1,13,0.00
2014-12-22,57.7,44.2,32.1,39.2,34.8,28.0,91,71,49,30.06,29.88,19,2,19,0.00
2014-12-23,51.9,40.5,25.7,38.3,24.3,14.4,94,58,25,30.18,29.94,21,2,21,0.00
2014-12-24,56.1,40.3,23.9,19.2,15.0,11.1,66,38,19,30.23,29.95,8,0,8,0.00
2014-12-25,60.4,49.3,34.1,34.5,23.7,11.5,94,44,18,29.78,29.60,36,8,36,0.04
2014-12-26,44.2,33.9,18.4,33.8,20.0,12.8,91,60,33,30.13,29.71,19,3,19,0.01
2014-12-27,44.1,29.6,14.2,21.3,14.5,9.9,86,57,30,30.40,30.12,14,2,17,0.00
2014-12-28,52.3,40.1,18.5,21.9,16.8,9.9,80,42,18,30.35,30.18,11,0,11,0.00
2014-12-29,56.9,43.2,27.0,19.6,10.4,4.2,55,29,12,30.22,30.07,8,0,8,0.00
2014-12-30,62.5,47.6,28.3,19.2,14.0,6.7,56,29,11,30.11,29.88,31,3,31,0.00
2014-12-31,58.6,47.3,27.9,33.8,21.5,11.2,92,43,22,29.89,29.73,34,4,34,0.00
2015-1-1,40.2,29.7,19.2,31.8,24.5,15.9,93,82,58,30.06,29.83,17,1,20,0.15
2015-1-2,35.3,27.5,21.0,30.3,24.0,16.8,100,87,70,30.18,30.00,15,1,15,0.00